createdAt,value
2019-05-02T00:00:56.786Z,0.00
2019-05-02T00:01:56.783Z,0.00
2019-05-02T00:02:59.765Z,0.00
2019-05-02T00:03:56.785Z,0.00
2019-05-02T00:04:57.109Z,0.00
2019-05-02T00:05:56.730Z,0.00
2019-05-02T00:06:56.747Z,0.00
2019-05-02T00:07:58.503Z,0.00
2019-05-02T00:08:56.732Z,0.00
2019-05-02T00:09:56.696Z,0.00
2019-05-02T00:10:56.680Z,0.00
2019-05-02T00:11:58.805Z,0.00
2019-05-02T00:12:56.649Z,0.00
2019-05-02T00:13:56.678Z,0.00
2019-05-02T00:15:01.738Z,0.00
2019-05-02T00:15:57.620Z,0.00
2019-05-02T00:16:56.619Z,0.00
2019-05-02T00:17:56.889Z,0.00
2019-05-02T00:18:56.594Z,0.00
2019-05-02T00:19:56.597Z,0.00
2019-05-02T00:20:57.152Z,0.00
2019-05-02T00:21:56.575Z,0.00
2019-05-02T00:22:56.633Z,0.00
2019-05-02T00:23:59.310Z,0.00
2019-05-02T00:24:57.554Z,0.00
2019-05-02T00:25:56.506Z,0.00
2019-05-02T00:27:01.358Z,0.00
2019-05-02T00:27:57.515Z,0.00
2019-05-02T00:28:56.474Z,0.00
2019-05-02T00:29:58.682Z,0.00
2019-05-02T00:30:56.462Z,0.00
2019-05-02T00:31:56.442Z,0.00
2019-05-02T00:32:58.243Z,0.00
2019-05-02T00:33:56.434Z,0.00
2019-05-02T00:34:56.428Z,0.00
2019-05-02T00:35:56.398Z,0.00
2019-05-02T00:36:56.378Z,0.00
2019-05-02T00:37:57.361Z,0.00
2019-05-02T00:38:57.405Z,0.00
2019-05-02T00:39:56.378Z,0.00
2019-05-02T00:40:57.489Z,0.00
2019-05-02T00:41:57.328Z,0.00
2019-05-02T00:42:58.263Z,0.00
2019-05-02T00:43:56.309Z,0.00
2019-05-02T00:44:56.314Z,0.00
2019-05-02T00:45:59.798Z,0.00
2019-05-02T00:46:56.272Z,0.00
2019-05-02T00:47:56.326Z,0.00
2019-05-02T00:48:59.632Z,0.00
2019-05-02T00:49:57.275Z,0.00
2019-05-02T00:50:56.229Z,0.00
2019-05-02T00:51:56.577Z,0.00
2019-05-02T00:52:56.215Z,0.00
2019-05-02T00:53:56.192Z,0.00
2019-05-02T00:54:58.719Z,0.00
2019-05-02T00:55:56.190Z,0.00
2019-05-02T00:56:56.164Z,0.00
2019-05-02T00:57:56.911Z,0.00
2019-05-02T00:58:56.141Z,0.00
2019-05-02T00:59:56.130Z,0.00
2019-05-02T01:00:56.138Z,0.00
2019-05-02T01:02:00.087Z,0.00
2019-05-02T01:02:57.113Z,0.00
2019-05-02T01:03:56.091Z,0.00
2019-05-02T01:04:59.253Z,0.00
2019-05-02T01:05:57.078Z,0.00
2019-05-02T01:06:56.062Z,0.00
2019-05-02T01:08:00.756Z,0.00
2019-05-02T01:08:57.029Z,0.00
2019-05-02T01:09:56.020Z,0.00
2019-05-02T01:10:56.860Z,0.00
2019-05-02T01:11:55.994Z,0.00
2019-05-02T01:12:55.985Z,0.00
2019-05-02T01:13:57.762Z,0.00
2019-05-02T01:14:55.959Z,0.00
2019-05-02T01:15:55.962Z,0.00
2019-05-02T01:16:56.279Z,0.00
2019-05-02T01:17:55.929Z,0.00
2019-05-02T01:18:55.915Z,0.00
2019-05-02T01:19:55.901Z,0.00
2019-05-02T01:20:58.135Z,0.00
2019-05-02T01:21:56.919Z,0.00
2019-05-02T01:22:55.868Z,0.00
2019-05-02T01:23:58.947Z,0.00
2019-05-02T01:24:56.863Z,0.00
2019-05-02T01:25:55.841Z,0.00
2019-05-02T01:26:59.841Z,0.00
2019-05-02T01:27:56.814Z,0.00
2019-05-02T01:28:55.808Z,0.00
2019-05-02T01:29:55.796Z,0.00
2019-05-02T01:30:55.790Z,0.00
2019-05-02T01:31:55.902Z,0.00
2019-05-02T01:32:55.766Z,0.00
2019-05-02T01:33:55.750Z,0.00
2019-05-02T01:34:56.394Z,0.00
2019-05-02T01:35:55.728Z,0.00
2019-05-02T01:36:55.714Z,0.00
2019-05-02T01:37:56.132Z,0.00
2019-05-02T01:38:55.710Z,0.00
2019-05-02T01:39:55.686Z,0.00
2019-05-02T01:40:55.672Z,0.00
2019-05-02T01:42:00.068Z,0.00
2019-05-02T01:42:56.670Z,0.00
2019-05-02T01:44:00.142Z,0.00
2019-05-02T01:44:56.692Z,0.00
2019-05-02T01:45:55.616Z,0.00
2019-05-02T01:46:58.713Z,0.00
2019-05-02T01:47:55.620Z,0.00
2019-05-02T01:48:55.670Z,0.00
2019-05-02T01:49:57.329Z,0.00
2019-05-02T01:50:55.561Z,0.00
2019-05-02T01:51:55.547Z,0.00
2019-05-02T01:52:58.677Z,0.00
2019-05-02T01:53:55.527Z,0.00
2019-05-02T01:54:55.524Z,0.00
2019-05-02T01:55:57.277Z,0.00
2019-05-02T01:56:55.504Z,0.00
2019-05-02T01:57:55.518Z,0.00
2019-05-02T01:58:57.787Z,0.00
2019-05-02T01:59:55.462Z,0.00
2019-05-02T02:00:55.464Z,0.00
2019-05-02T02:01:57.897Z,0.00
2019-05-02T02:02:55.433Z,0.00
2019-05-02T02:03:55.457Z,0.00
2019-05-02T02:04:56.944Z,0.00
2019-05-02T02:05:55.401Z,0.00
2019-05-02T02:06:55.385Z,0.00
2019-05-02T02:07:57.203Z,0.00
2019-05-02T02:08:55.389Z,0.00
2019-05-02T02:09:55.350Z,0.00
2019-05-02T02:10:57.868Z,0.00
2019-05-02T02:11:55.338Z,0.00
2019-05-02T02:13:03.417Z,0.00
2019-05-02T02:13:56.333Z,0.00
2019-05-02T02:14:55.574Z,0.00
2019-05-02T02:15:55.281Z,0.00
2019-05-02T02:16:55.278Z,0.00
2019-05-02T02:17:55.271Z,0.00
2019-05-02T02:18:59.084Z,0.00
2019-05-02T02:19:56.252Z,0.00
2019-05-02T02:20:55.229Z,0.00
2019-05-02T02:21:57.404Z,0.00
2019-05-02T02:22:56.198Z,0.00
2019-05-02T02:23:55.217Z,0.00
2019-05-02T02:24:55.882Z,0.00
2019-05-02T02:25:56.168Z,0.00
2019-05-02T02:26:55.170Z,0.00
2019-05-02T02:27:59.721Z,0.00
2019-05-02T02:28:56.134Z,0.00
2019-05-02T02:29:55.153Z,0.00
2019-05-02T02:30:58.043Z,0.00
2019-05-02T02:31:56.120Z,0.00
2019-05-02T02:33:00.522Z,0.00
2019-05-02T02:33:56.079Z,0.00
2019-05-02T02:34:55.098Z,0.00
2019-05-02T02:35:55.061Z,0.00
2019-05-02T02:36:55.048Z,0.00
2019-05-02T02:37:55.718Z,0.00
2019-05-02T02:38:55.022Z,0.00
2019-05-02T02:39:56.476Z,0.00
2019-05-02T02:40:55.028Z,0.00
2019-05-02T02:41:55.011Z,0.00
2019-05-02T02:42:54.985Z,0.00
2019-05-02T02:44:00.495Z,0.00
2019-05-02T02:44:55.994Z,0.00
2019-05-02T02:45:58.045Z,0.00
2019-05-02T02:46:54.941Z,0.00
2019-05-02T02:47:59.930Z,0.00
2019-05-02T02:48:55.910Z,0.00
2019-05-02T02:50:02.499Z,0.00
2019-05-02T02:50:55.919Z,0.00
2019-05-02T02:51:58.181Z,0.00
2019-05-02T02:52:55.878Z,0.00
2019-05-02T02:54:03.207Z,0.00
2019-05-02T02:54:55.847Z,0.00
2019-05-02T02:56:00.746Z,0.00
2019-05-02T02:56:55.818Z,0.00
2019-05-02T02:57:58.487Z,0.00
2019-05-02T02:58:55.810Z,0.00
2019-05-02T03:00:06.396Z,0.00
2019-05-02T03:00:55.800Z,0.00
2019-05-02T03:01:54.770Z,0.00
2019-05-02T03:02:54.756Z,0.00
2019-05-02T03:03:54.752Z,0.00
2019-05-02T03:04:54.734Z,0.00
2019-05-02T03:05:58.586Z,0.00
2019-05-02T03:06:55.735Z,0.00
2019-05-02T03:07:59.668Z,0.00
2019-05-02T03:08:55.687Z,0.00
2019-05-02T03:09:59.392Z,4.00
2019-05-02T03:10:55.670Z,4.00
2019-05-02T03:11:56.308Z,0.00
2019-05-02T03:12:55.644Z,4.00
2019-05-02T03:14:06.099Z,4.00
2019-05-02T03:14:55.619Z,4.00
2019-05-02T03:16:00.344Z,8.00
2019-05-02T03:16:55.616Z,4.00
2019-05-02T03:18:00.114Z,8.00
2019-05-02T03:18:55.579Z,8.00
2019-05-02T03:20:00.950Z,8.00
2019-05-02T03:20:55.559Z,12.00
2019-05-02T03:22:00.990Z,12.00
2019-05-02T03:22:55.532Z,16.00
2019-05-02T03:24:03.068Z,12.00
2019-05-02T03:24:55.526Z,12.00
2019-05-02T03:25:54.500Z,20.00
2019-05-02T03:26:55.422Z,16.00
2019-05-02T03:27:54.477Z,20.00
2019-05-02T03:28:58.707Z,20.00
2019-05-02T03:29:55.452Z,24.00
2019-05-02T03:30:54.446Z,24.00
2019-05-02T03:32:11.790Z,28.00
2019-05-02T03:33:09.828Z,32.00
2019-05-02T03:34:00.332Z,36.00
2019-05-02T03:34:55.402Z,40.00
2019-05-02T03:35:54.415Z,40.00
2019-05-02T03:36:54.383Z,48.00
2019-05-02T03:37:54.386Z,48.00
2019-05-02T03:38:54.354Z,52.00
2019-05-02T03:40:00.251Z,60.00
2019-05-02T03:40:55.334Z,64.00
2019-05-02T03:41:55.446Z,64.00
2019-05-02T03:42:55.333Z,68.00
2019-05-02T03:44:09.928Z,84.00
2019-05-02T03:44:58.477Z,76.00
2019-05-02T03:45:54.275Z,80.00
2019-05-02T03:47:02.042Z,96.00
2019-05-02T03:47:55.279Z,100.00
2019-05-02T03:49:06.250Z,96.00
2019-05-02T03:49:55.235Z,108.00
2019-05-02T03:50:54.224Z,112.00
2019-05-02T03:51:56.019Z,116.00
2019-05-02T03:52:55.215Z,128.00
2019-05-02T03:54:06.088Z,120.00
2019-05-02T03:54:55.204Z,144.00
2019-05-02T03:55:54.171Z,128.00
2019-05-02T03:56:54.158Z,144.00
2019-05-02T03:57:54.154Z,148.00
2019-05-02T03:58:56.487Z,160.00
2019-05-02T03:59:54.118Z,180.00
2019-05-02T04:01:00.258Z,176.00
2019-05-02T04:01:55.103Z,208.00
2019-05-02T04:03:00.825Z,228.00
2019-05-02T04:03:55.086Z,208.00
2019-05-02T04:05:00.024Z,224.00
2019-05-02T04:05:55.059Z,228.00
2019-05-02T04:06:54.847Z,228.00
2019-05-02T04:07:55.051Z,248.00
2019-05-02T04:08:59.948Z,256.00
2019-05-02T04:09:55.008Z,252.00
2019-05-02T04:10:59.405Z,264.00
2019-05-02T04:11:54.988Z,272.00
2019-05-02T04:12:58.325Z,268.00
2019-05-02T04:13:54.989Z,312.00
2019-05-02T04:14:56.026Z,316.00
2019-05-02T04:15:53.944Z,312.00
2019-05-02T04:16:55.110Z,316.00
2019-05-02T04:17:53.945Z,360.00
2019-05-02T04:18:55.632Z,336.00
2019-05-02T04:19:53.927Z,344.00
2019-05-02T04:20:53.898Z,356.00
2019-05-02T04:21:54.955Z,344.00
2019-05-02T04:22:53.865Z,392.00
2019-05-02T04:23:54.056Z,396.00
2019-05-02T04:24:54.711Z,372.00
2019-05-02T04:25:53.828Z,372.00
2019-05-02T04:26:56.319Z,452.00
2019-05-02T04:27:53.809Z,424.00
2019-05-02T04:28:53.910Z,444.00
2019-05-02T04:29:53.782Z,460.00
2019-05-02T04:30:54.018Z,512.00
2019-05-02T04:31:53.764Z,480.00
2019-05-02T04:32:56.000Z,468.00
2019-05-02T04:33:53.759Z,444.00
2019-05-02T04:34:55.310Z,560.00
2019-05-02T04:35:53.720Z,452.00
2019-05-02T04:37:00.742Z,516.00
2019-05-02T04:37:54.704Z,464.00
2019-05-02T04:38:53.701Z,444.00
2019-05-02T04:39:57.873Z,536.00
2019-05-02T04:40:54.665Z,572.00
2019-05-02T04:41:53.650Z,544.00
2019-05-02T04:43:01.954Z,712.00
2019-05-02T04:43:57.807Z,604.00
2019-05-02T04:45:13.819Z,620.00
2019-05-02T04:45:57.412Z,624.00
2019-05-02T04:46:59.904Z,584.00
2019-05-02T04:48:00.924Z,760.00
2019-05-02T04:48:54.616Z,784.00
2019-05-02T04:49:53.566Z,796.00
2019-05-02T04:50:59.706Z,716.00
2019-05-02T04:52:04.704Z,848.00
2019-05-02T04:52:54.555Z,792.00
2019-05-02T04:53:53.541Z,796.00
2019-05-02T04:55:00.498Z,912.00
2019-05-02T04:56:01.914Z,784.00
2019-05-02T04:56:55.392Z,904.00
2019-05-02T04:57:53.481Z,892.00
2019-05-02T04:58:53.494Z,808.00
2019-05-02T05:00:04.986Z,924.00
2019-05-02T05:00:59.232Z,800.00
2019-05-02T05:01:57.505Z,740.00
2019-05-02T05:02:54.416Z,852.00
2019-05-02T05:03:58.369Z,936.00
2019-05-02T05:04:54.400Z,880.00
2019-05-02T05:05:53.391Z,864.00
2019-05-02T05:06:58.113Z,916.00
2019-05-02T05:07:54.363Z,940.00
2019-05-02T05:08:53.362Z,984.00
2019-05-02T05:09:58.176Z,916.00
2019-05-02T05:10:54.328Z,1036.00
2019-05-02T05:11:53.886Z,920.00
2019-05-02T05:12:53.302Z,1088.00
2019-05-02T05:13:57.587Z,972.00
2019-05-02T05:14:54.277Z,1020.00
2019-05-02T05:15:53.272Z,1128.00
2019-05-02T05:16:55.726Z,1044.00
2019-05-02T05:17:53.250Z,1288.00
2019-05-02T05:18:53.360Z,1104.00
2019-05-02T05:19:53.229Z,1424.00
2019-05-02T05:20:54.287Z,1276.00
2019-05-02T05:21:58.804Z,1244.00
2019-05-02T05:22:54.191Z,1368.00
2019-05-02T05:23:59.628Z,1488.00
2019-05-02T05:24:54.191Z,1272.00
2019-05-02T05:25:55.680Z,1396.00
2019-05-02T05:26:54.163Z,1296.00
2019-05-02T05:27:58.795Z,1384.00
2019-05-02T05:28:54.146Z,1320.00
2019-05-02T05:29:53.789Z,1308.00
2019-05-02T05:30:54.100Z,1384.00
2019-05-02T05:31:55.075Z,1264.00
2019-05-02T05:32:54.080Z,1296.00
2019-05-02T05:33:53.066Z,1144.00
2019-05-02T05:34:53.555Z,1512.00
2019-05-02T05:35:53.049Z,1176.00
2019-05-02T05:36:53.042Z,1220.00
2019-05-02T05:37:53.449Z,1224.00
2019-05-02T05:38:53.021Z,1088.00
2019-05-02T05:39:53.029Z,1188.00
2019-05-02T05:40:52.997Z,1160.00
2019-05-02T05:41:52.983Z,1096.00
2019-05-02T05:42:52.972Z,1284.00
2019-05-02T05:43:53.656Z,1276.00
2019-05-02T05:44:52.967Z,1176.00
2019-05-02T05:45:56.601Z,1360.00
2019-05-02T05:46:53.930Z,1320.00
2019-05-02T05:47:57.484Z,1276.00
2019-05-02T05:48:53.904Z,1336.00
2019-05-02T05:49:57.665Z,1444.00
2019-05-02T05:50:53.882Z,1296.00
2019-05-02T05:51:54.401Z,1396.00
2019-05-02T05:52:53.858Z,1612.00
2019-05-02T05:53:59.097Z,1468.00
2019-05-02T05:54:53.856Z,1500.00
2019-05-02T05:55:53.649Z,1528.00
2019-05-02T05:56:53.812Z,1364.00
2019-05-02T05:57:59.928Z,1772.00
2019-05-02T05:58:53.807Z,1480.00
2019-05-02T05:59:52.804Z,1536.00
2019-05-02T06:00:55.343Z,1472.00
2019-05-02T06:01:52.757Z,1924.00
2019-05-02T06:02:56.792Z,1760.00
2019-05-02T06:03:53.736Z,1656.00
2019-05-02T06:04:55.176Z,1764.00
2019-05-02T06:05:53.708Z,1484.00
2019-05-02T06:06:58.349Z,1588.00
2019-05-02T06:07:53.696Z,1548.00
2019-05-02T06:08:54.036Z,1544.00
2019-05-02T06:09:52.689Z,1520.00
2019-05-02T06:10:52.660Z,1656.00
2019-05-02T06:11:55.440Z,1584.00
2019-05-02T06:12:52.633Z,1772.00
2019-05-02T06:13:52.626Z,1776.00
2019-05-02T06:14:56.338Z,1788.00
2019-05-02T06:16:02.229Z,1908.00
2019-05-02T06:16:53.587Z,1708.00
2019-05-02T06:17:52.580Z,1644.00
2019-05-02T06:18:52.570Z,1928.00
2019-05-02T06:19:53.582Z,1980.00
2019-05-02T06:20:52.567Z,2156.00
2019-05-02T06:21:52.533Z,2060.00
2019-05-02T06:22:55.033Z,2280.00
2019-05-02T06:23:53.507Z,2168.00
2019-05-02T06:24:52.505Z,2148.00
2019-05-02T06:25:52.515Z,2060.00
2019-05-02T06:26:52.483Z,2180.00
2019-05-02T06:27:52.468Z,2096.00
2019-05-02T06:28:52.449Z,2128.00
2019-05-02T06:29:56.075Z,1896.00
2019-05-02T06:30:52.470Z,1948.00
2019-05-02T06:31:52.424Z,2004.00
2019-05-02T06:32:54.917Z,1956.00
2019-05-02T06:33:52.401Z,2060.00
2019-05-02T06:34:52.387Z,2312.00
2019-05-02T06:36:01.022Z,2136.00
2019-05-02T06:36:53.365Z,1992.00
2019-05-02T06:37:52.363Z,2036.00
2019-05-02T06:38:56.458Z,2216.00
2019-05-02T06:39:53.336Z,2144.00
2019-05-02T06:40:52.346Z,2276.00
2019-05-02T06:41:57.472Z,2492.00
2019-05-02T06:42:53.305Z,2528.00
2019-05-02T06:43:52.289Z,2476.00
2019-05-02T06:44:54.925Z,2600.00
2019-05-02T06:45:53.288Z,2656.00
2019-05-02T06:46:52.258Z,2812.00
2019-05-02T06:47:52.250Z,2892.00
2019-05-02T06:48:52.555Z,3000.00
2019-05-02T06:49:56.096Z,2856.00
2019-05-02T06:50:53.243Z,2768.00
2019-05-02T06:51:56.259Z,2764.00
2019-05-02T06:52:53.186Z,2524.00
2019-05-02T06:53:52.176Z,2628.00
2019-05-02T06:54:54.105Z,2876.00
2019-05-02T06:55:53.155Z,3136.00
2019-05-02T06:56:52.158Z,3056.00
2019-05-02T06:57:57.114Z,3404.00
2019-05-02T06:58:53.118Z,3216.00
2019-05-02T06:59:54.662Z,2832.00
2019-05-02T07:00:58.214Z,2976.00
2019-05-02T07:01:57.431Z,2732.00
2019-05-02T07:02:53.076Z,2772.00
2019-05-02T07:03:52.073Z,2700.00
2019-05-02T07:04:54.695Z,2916.00
2019-05-02T07:05:52.050Z,3092.00
2019-05-02T07:06:58.645Z,2940.00
2019-05-02T07:07:53.047Z,2568.00
2019-05-02T07:08:52.034Z,2484.00
2019-05-02T07:09:52.006Z,2736.00
2019-05-02T07:10:56.123Z,2428.00
2019-05-02T07:11:57.260Z,2660.00
2019-05-02T07:13:02.242Z,2560.00
2019-05-02T07:13:52.951Z,2672.00
2019-05-02T07:14:56.016Z,2540.00
2019-05-02T07:15:52.933Z,2052.00
2019-05-02T07:16:54.602Z,2012.00
2019-05-02T07:17:51.935Z,2032.00
2019-05-02T07:18:51.898Z,1892.00
2019-05-02T07:19:51.890Z,2268.00
2019-05-02T07:20:51.880Z,2320.00
2019-05-02T07:21:53.190Z,2260.00
2019-05-02T07:22:52.877Z,1988.00
2019-05-02T07:23:53.663Z,1920.00
2019-05-02T07:24:51.839Z,2008.00
2019-05-02T07:25:51.831Z,1992.00
2019-05-02T07:26:52.154Z,1984.00
2019-05-02T07:27:51.831Z,1972.00
2019-05-02T07:28:51.802Z,2192.00
2019-05-02T07:29:57.132Z,2144.00
2019-05-02T07:30:54.632Z,1968.00
2019-05-02T07:31:53.511Z,1940.00
2019-05-02T07:32:51.747Z,1964.00
2019-05-02T07:33:51.762Z,2180.00
2019-05-02T07:34:51.718Z,1936.00
2019-05-02T07:35:55.213Z,2016.00
2019-05-02T07:36:52.718Z,2100.00
2019-05-02T07:37:51.718Z,2156.00
2019-05-02T07:38:51.690Z,2328.00
2019-05-02T07:39:51.693Z,1968.00
2019-05-02T07:40:52.959Z,1900.00
2019-05-02T07:41:51.706Z,2028.00
2019-05-02T07:42:51.763Z,1952.00
2019-05-02T07:43:52.175Z,2132.00
2019-05-02T07:44:51.743Z,2264.00
2019-05-02T07:45:51.740Z,2284.00
2019-05-02T07:46:52.376Z,2184.00
2019-05-02T07:47:52.573Z,2140.00
2019-05-02T07:48:54.451Z,2088.00
2019-05-02T07:49:51.555Z,2028.00
2019-05-02T07:50:51.917Z,1856.00
2019-05-02T07:51:52.238Z,1928.00
2019-05-02T07:52:52.530Z,1892.00
2019-05-02T07:53:51.511Z,2008.00
2019-05-02T07:54:51.530Z,2236.00
2019-05-02T07:55:51.494Z,2200.00
2019-05-02T07:56:53.296Z,2148.00
2019-05-02T07:57:51.476Z,1956.00
2019-05-02T07:58:51.463Z,1856.00
2019-05-02T07:59:54.992Z,2204.00
2019-05-02T08:00:52.430Z,2184.00
2019-05-02T08:01:51.418Z,2272.00
2019-05-02T08:02:51.427Z,2492.00
2019-05-02T08:03:51.403Z,2236.00
2019-05-02T08:04:51.406Z,2032.00
2019-05-02T08:05:54.406Z,2344.00
2019-05-02T08:06:52.366Z,2020.00
2019-05-02T08:07:53.268Z,2208.00
2019-05-02T08:08:51.346Z,2200.00
2019-05-02T08:09:51.349Z,2360.00
2019-05-02T08:10:53.866Z,2564.00
2019-05-02T08:11:52.308Z,2252.00
2019-05-02T08:12:51.299Z,2656.00
2019-05-02T08:13:55.681Z,2556.00
2019-05-02T08:14:52.298Z,2500.00
2019-05-02T08:15:52.418Z,2612.00
2019-05-02T08:17:04.409Z,2564.00
2019-05-02T08:17:53.758Z,2552.00
2019-05-02T08:18:51.241Z,2924.00
2019-05-02T08:19:51.216Z,2828.00
2019-05-02T08:20:56.018Z,2688.00
2019-05-02T08:21:52.202Z,2692.00
2019-05-02T08:22:51.183Z,2596.00
2019-05-02T08:23:51.171Z,2556.00
2019-05-02T08:24:51.162Z,2664.00
2019-05-02T08:25:51.171Z,2968.00
2019-05-02T08:26:53.458Z,3188.00
2019-05-02T08:27:52.130Z,3264.00
2019-05-02T08:28:51.857Z,2936.00
2019-05-02T08:29:51.111Z,3176.00
2019-05-02T08:30:51.160Z,2976.00
2019-05-02T08:31:51.087Z,2840.00
2019-05-02T08:32:51.098Z,3096.00
2019-05-02T08:33:51.073Z,2660.00
2019-05-02T08:34:51.958Z,3044.00
2019-05-02T08:35:51.038Z,3056.00
2019-05-02T08:36:51.056Z,2820.00
2019-05-02T08:37:51.021Z,2680.00
2019-05-02T08:38:53.673Z,2704.00
2019-05-02T08:39:51.008Z,3540.00
2019-05-02T08:40:50.983Z,3588.00
2019-05-02T08:41:51.361Z,3304.00
2019-05-02T08:42:50.965Z,3100.00
2019-05-02T08:43:50.955Z,2960.00
2019-05-02T08:45:52.033Z,3952.00
2019-05-02T08:46:51.510Z,3480.00
2019-05-02T08:48:11.908Z,3288.00
2019-05-02T08:48:50.970Z,2884.00
2019-05-02T08:49:54.778Z,3064.00
2019-05-02T08:50:51.878Z,3164.00
2019-05-02T08:51:50.882Z,3028.00
2019-05-02T08:52:50.856Z,3348.00
2019-05-02T08:53:52.006Z,3352.00
2019-05-02T08:54:51.826Z,3248.00
2019-05-02T08:55:50.819Z,3520.00
2019-05-02T08:56:53.209Z,3312.00
2019-05-02T08:57:51.799Z,4328.00
2019-05-02T08:58:51.156Z,3648.00
2019-05-02T08:59:50.777Z,3416.00
2019-05-02T09:00:50.764Z,2924.00
2019-05-02T09:01:51.460Z,3156.00
2019-05-02T09:02:50.760Z,3824.00
2019-05-02T09:03:54.982Z,4084.00
2019-05-02T09:04:58.327Z,3624.00
2019-05-02T09:05:51.710Z,3828.00
2019-05-02T09:06:53.205Z,3496.00
2019-05-02T09:07:51.709Z,3520.00
2019-05-02T09:08:51.257Z,3768.00
2019-05-02T09:09:50.666Z,3256.00
2019-05-02T09:10:50.653Z,3476.00
2019-05-02T09:12:03.259Z,3720.00
2019-05-02T09:12:52.132Z,3628.00
2019-05-02T09:13:52.474Z,3136.00
2019-05-02T09:14:52.074Z,3376.00
2019-05-02T09:15:53.619Z,3216.00
2019-05-02T09:16:52.351Z,3568.00
2019-05-02T09:17:56.067Z,3276.00
2019-05-02T09:18:54.108Z,3832.00
2019-05-02T09:20:00.430Z,3788.00
2019-05-02T09:20:55.390Z,4068.00
2019-05-02T09:21:52.539Z,3952.00
2019-05-02T09:22:54.116Z,3748.00
2019-05-02T09:23:51.869Z,4120.00
2019-05-02T09:24:52.028Z,3788.00
2019-05-02T09:25:51.924Z,3276.00
2019-05-02T09:26:51.936Z,4284.00
2019-05-02T09:27:52.478Z,4000.00
2019-05-02T09:28:51.709Z,4796.00
2019-05-02T09:29:51.907Z,4744.00
2019-05-02T09:30:52.296Z,4484.00
2019-05-02T09:31:52.516Z,4228.00
2019-05-02T09:32:52.150Z,4540.00
2019-05-02T09:33:52.032Z,4128.00
2019-05-02T09:34:51.846Z,5296.00
2019-05-02T09:35:51.576Z,5088.00
2019-05-02T09:36:50.373Z,5416.00
2019-05-02T09:37:52.214Z,5252.00
2019-05-02T09:38:56.002Z,5164.00
2019-05-02T09:39:52.485Z,4376.00
2019-05-02T09:40:54.616Z,5204.00
2019-05-02T09:41:52.729Z,5372.00
2019-05-02T09:42:53.531Z,6104.00
2019-05-02T09:43:52.379Z,5416.00
2019-05-02T09:44:55.941Z,5148.00
2019-05-02T09:45:51.990Z,4452.00
2019-05-02T09:46:53.089Z,5768.00
2019-05-02T09:47:59.552Z,5072.00
2019-05-02T09:48:51.979Z,5036.00
2019-05-02T09:49:52.561Z,4112.00
2019-05-02T09:50:50.205Z,5372.00
2019-05-02T09:51:58.371Z,4956.00
2019-05-02T09:52:52.414Z,5296.00
2019-05-02T09:53:52.218Z,5540.00
2019-05-02T09:54:51.851Z,4356.00
2019-05-02T09:55:55.134Z,3920.00
2019-05-02T09:56:52.391Z,4352.00
2019-05-02T09:57:51.946Z,3704.00
2019-05-02T09:58:55.304Z,3720.00
2019-05-02T09:59:55.693Z,4424.00
2019-05-02T10:00:52.335Z,4356.00
2019-05-02T10:01:50.092Z,3944.00
2019-05-02T10:02:52.153Z,4476.00
2019-05-02T10:03:51.863Z,4432.00
2019-05-02T10:04:50.058Z,4140.00
2019-05-02T10:05:52.167Z,4008.00
2019-05-02T10:06:52.256Z,3508.00
2019-05-02T10:07:50.025Z,4100.00
2019-05-02T10:08:52.011Z,6272.00
2019-05-02T10:09:51.850Z,7468.00
2019-05-02T10:10:52.042Z,6032.00
2019-05-02T10:11:49.976Z,8112.00
2019-05-02T10:12:52.039Z,7868.00
2019-05-02T10:13:51.727Z,5952.00
2019-05-02T10:14:49.964Z,4188.00
2019-05-02T10:15:49.927Z,4844.00
2019-05-02T10:16:49.936Z,5016.00
2019-05-02T10:17:51.780Z,7304.00
2019-05-02T10:18:52.140Z,7224.00
2019-05-02T10:19:54.917Z,6804.00
2019-05-02T10:20:52.404Z,5888.00
2019-05-02T10:21:52.441Z,5620.00
2019-05-02T10:22:52.961Z,5160.00
2019-05-02T10:23:51.789Z,6052.00
2019-05-02T10:24:51.985Z,5252.00
2019-05-02T10:25:51.956Z,4892.00
2019-05-02T10:26:49.806Z,4272.00
2019-05-02T10:27:49.799Z,3904.00
2019-05-02T10:28:51.213Z,4532.00
2019-05-02T10:29:49.794Z,4732.00
2019-05-02T10:30:52.516Z,4088.00
2019-05-02T10:31:52.624Z,3908.00
2019-05-02T10:32:55.567Z,4024.00
2019-05-02T10:33:52.755Z,3764.00
2019-05-02T10:34:55.257Z,3400.00
2019-05-02T10:35:52.449Z,3712.00
2019-05-02T10:36:54.136Z,4124.00
2019-05-02T10:37:52.115Z,3580.00
2019-05-02T10:38:54.976Z,4168.00
2019-05-02T10:39:52.526Z,3356.00
2019-05-02T10:40:54.775Z,3344.00
2019-05-02T10:41:52.505Z,4064.00
2019-05-02T10:42:49.632Z,4980.00
2019-05-02T10:43:51.961Z,4432.00
2019-05-02T10:44:52.134Z,4144.00
2019-05-02T10:45:52.796Z,3452.00
2019-05-02T10:46:52.302Z,3528.00
2019-05-02T10:47:49.562Z,3604.00
2019-05-02T10:48:49.577Z,4240.00
2019-05-02T10:49:49.583Z,4168.00
2019-05-02T10:50:49.549Z,3884.00
2019-05-02T10:51:51.867Z,4244.00
2019-05-02T10:52:49.535Z,4460.00
2019-05-02T10:53:52.703Z,4484.00
2019-05-02T10:54:52.692Z,3936.00
2019-05-02T10:55:49.483Z,3944.00
2019-05-02T10:56:49.474Z,3908.00
2019-05-02T10:57:49.462Z,3984.00
2019-05-02T10:58:49.441Z,4600.00
2019-05-02T10:59:49.436Z,4464.00
2019-05-02T11:00:49.440Z,3560.00
2019-05-02T11:01:49.426Z,3720.00
2019-05-02T11:02:49.409Z,4132.00
2019-05-02T11:03:51.554Z,3252.00
2019-05-02T11:04:49.376Z,3436.00
2019-05-02T11:05:49.386Z,3268.00
2019-05-02T11:06:49.370Z,3288.00
2019-05-02T11:07:49.349Z,3152.00
2019-05-02T11:08:49.344Z,3400.00
2019-05-02T11:09:49.350Z,3860.00
2019-05-02T11:10:49.336Z,3852.00
2019-05-02T11:11:49.306Z,3304.00
2019-05-02T11:12:49.286Z,3900.00
2019-05-02T11:13:53.329Z,3448.00
2019-05-02T11:14:51.650Z,3272.00
2019-05-02T11:15:49.291Z,4448.00
2019-05-02T11:16:49.246Z,3252.00
2019-05-02T11:17:49.230Z,3804.00
2019-05-02T11:18:49.230Z,3288.00
2019-05-02T11:19:49.238Z,3000.00
2019-05-02T11:20:49.221Z,3036.00
2019-05-02T11:21:56.268Z,3112.00
2019-05-02T11:22:52.606Z,3064.00
2019-05-02T11:23:49.264Z,2956.00
2019-05-02T11:24:49.175Z,4460.00
2019-05-02T11:25:49.165Z,3720.00
2019-05-02T11:26:49.138Z,4472.00
2019-05-02T11:27:49.126Z,4656.00
2019-05-02T11:28:49.121Z,4048.00
2019-05-02T11:29:49.110Z,4136.00
2019-05-02T11:30:49.155Z,3916.00
2019-05-02T11:31:49.122Z,4040.00
2019-05-02T11:32:49.092Z,3860.00
2019-05-02T11:33:49.072Z,4956.00
2019-05-02T11:34:49.078Z,3796.00
2019-05-02T11:35:51.130Z,4448.00
2019-05-02T11:36:49.049Z,4464.00
2019-05-02T11:37:49.048Z,4272.00
2019-05-02T11:38:55.172Z,3660.00
2019-05-02T11:39:54.211Z,3456.00
2019-05-02T11:40:51.959Z,4336.00
2019-05-02T11:41:48.964Z,4668.00
2019-05-02T11:42:49.002Z,4616.00
2019-05-02T11:43:48.964Z,3936.00
2019-05-02T11:44:48.981Z,4624.00
2019-05-02T11:45:49.093Z,3728.00
2019-05-02T11:46:48.923Z,3704.00
2019-05-02T11:47:48.909Z,3320.00
2019-05-02T11:48:56.422Z,3568.00
2019-05-02T11:49:52.156Z,4212.00
2019-05-02T11:50:52.109Z,3568.00
2019-05-02T11:51:52.590Z,3620.00
2019-05-02T11:52:52.118Z,3696.00
2019-05-02T11:53:48.853Z,3128.00
2019-05-02T11:54:48.973Z,3300.00
2019-05-02T11:55:48.858Z,3304.00
2019-05-02T11:56:50.426Z,3244.00
2019-05-02T11:57:48.819Z,4488.00
2019-05-02T11:58:50.271Z,3616.00
2019-05-02T11:59:48.771Z,3544.00
2019-05-02T12:00:49.736Z,5652.00
2019-05-02T12:01:57.660Z,6716.00
2019-05-02T12:02:54.208Z,7260.00
2019-05-02T12:03:52.231Z,6292.00
2019-05-02T12:04:53.915Z,4756.00
2019-05-02T12:05:48.732Z,5596.00
2019-05-02T12:06:49.934Z,5584.00
2019-05-02T12:07:49.689Z,5044.00
2019-05-02T12:08:49.530Z,4448.00
2019-05-02T12:09:52.055Z,5868.00
2019-05-02T12:10:48.645Z,4816.00
2019-05-02T12:11:54.978Z,4080.00
2019-05-02T12:12:49.619Z,4232.00
2019-05-02T12:13:52.748Z,5172.00
2019-05-02T12:14:49.601Z,5592.00
2019-05-02T12:15:48.591Z,5860.00
2019-05-02T12:16:48.597Z,5884.00
2019-05-02T12:17:48.580Z,5668.00
2019-05-02T12:18:48.552Z,5976.00
2019-05-02T12:19:48.543Z,5236.00
2019-05-02T12:20:48.528Z,4656.00
2019-05-02T12:21:48.533Z,4728.00
2019-05-02T12:22:48.509Z,5872.00
2019-05-02T12:23:48.496Z,5688.00
2019-05-02T12:24:48.486Z,5628.00
2019-05-02T12:25:48.478Z,5052.00
2019-05-02T12:26:48.498Z,3568.00
2019-05-02T12:27:48.465Z,4196.00
2019-05-02T12:28:48.442Z,4292.00
2019-05-02T12:29:50.282Z,4220.00